sensor_id;sensor_type;location;lat;lon;timestamp;temperature;humidity
21298;DHT22;10808;48.010;11.326;2023-06-10T00:02:21;18.60;90.90
21298;DHT22;10808;48.010;11.326;2023-06-10T00:04:47;18.60;91.10
21298;DHT22;10808;48.010;11.326;2023-06-10T00:07:13;18.60;91.10
21298;DHT22;10808;48.010;11.326;2023-06-10T00:09:39;18.60;91.30
21298;DHT22;10808;48.010;11.326;2023-06-10T00:12:06;18.50;91.40
21298;DHT22;10808;48.010;11.326;2023-06-10T00:14:33;18.50;91.50
21298;DHT22;10808;48.010;11.326;2023-06-10T00:16:59;18.50;91.70
21298;DHT22;10808;48.010;11.326;2023-06-10T00:19:25;18.40;91.80
21298;DHT22;10808;48.010;11.326;2023-06-10T00:21:52;18.40;92.00
21298;DHT22;10808;48.010;11.326;2023-06-10T00:24:18;18.40;92.00
21298;DHT22;10808;48.010;11.326;2023-06-10T00:26:44;18.40;92.00
21298;DHT22;10808;48.010;11.326;2023-06-10T00:29:10;18.30;92.20
21298;DHT22;10808;48.010;11.326;2023-06-10T00:31:37;18.30;92.20
21298;DHT22;10808;48.010;11.326;2023-06-10T00:34:04;18.30;92.40
21298;DHT22;10808;48.010;11.326;2023-06-10T00:36:30;18.30;92.30
21298;DHT22;10808;48.010;11.326;2023-06-10T00:38:57;18.30;92.30
21298;DHT22;10808;48.010;11.326;2023-06-10T00:41:23;18.20;92.50
21298;DHT22;10808;48.010;11.326;2023-06-10T00:43:49;18.20;92.70
21298;DHT22;10808;48.010;11.326;2023-06-10T00:46:15;18.10;92.80
21298;DHT22;10808;48.010;11.326;2023-06-10T00:48:43;18.10;93.00
21298;DHT22;10808;48.010;11.326;2023-06-10T00:51:10;18.10;92.90
21298;DHT22;10808;48.010;11.326;2023-06-10T00:53:37;18.00;93.10
21298;DHT22;10808;48.010;11.326;2023-06-10T00:56:05;18.00;93.20
21298;DHT22;10808;48.010;11.326;2023-06-10T00:58:32;18.00;93.30
21298;DHT22;10808;48.010;11.326;2023-06-10T01:00:58;18.00;93.30
21298;DHT22;10808;48.010;11.326;2023-06-10T01:03:24;18.00;93.40
21298;DHT22;10808;48.010;11.326;2023-06-10T01:06:08;18.00;93.40
21298;DHT22;10808;48.010;11.326;2023-06-10T01:08:54;18.00;93.50
21298;DHT22;10808;48.010;11.326;2023-06-10T01:11:25;17.90;93.90
21298;DHT22;10808;48.010;11.326;2023-06-10T01:13:55;17.80;93.60
21298;DHT22;10808;48.010;11.326;2023-06-10T01:16:22;17.80;93.70
21298;DHT22;10808;48.010;11.326;2023-06-10T01:18:49;17.80;93.80
21298;DHT22;10808;48.010;11.326;2023-06-10T01:21:20;17.70;94.00
21298;DHT22;10808;48.010;11.326;2023-06-10T01:23:47;17.70;94.40
21298;DHT22;10808;48.010;11.326;2023-06-10T01:26:13;17.60;94.70
21298;DHT22;10808;48.010;11.326;2023-06-10T01:28:50;17.60;95.10
21298;DHT22;10808;48.010;11.326;2023-06-10T01:31:41;17.60;95.10
21298;DHT22;10808;48.010;11.326;2023-06-10T01:34:10;17.50;95.40
21298;DHT22;10808;48.010;11.326;2023-06-10T01:36:37;17.50;95.70
21298;DHT22;10808;48.010;11.326;2023-06-10T01:39:04;17.50;96.00
21298;DHT22;10808;48.010;11.326;2023-06-10T01:41:32;17.40;96.20
21298;DHT22;10808;48.010;11.326;2023-06-10T01:43:58;17.30;96.40
21298;DHT22;10808;48.010;11.326;2023-06-10T01:46:24;17.30;96.60
21298;DHT22;10808;48.010;11.326;2023-06-10T01:48:50;17.20;96.90
21298;DHT22;10808;48.010;11.326;2023-06-10T01:51:16;17.10;96.60
21298;DHT22;10808;48.010;11.326;2023-06-10T01:53:42;17.20;96.90
21298;DHT22;10808;48.010;11.326;2023-06-10T01:56:11;17.10;97.10
21298;DHT22;10808;48.010;11.326;2023-06-10T01:58:42;17.10;97.40
21298;DHT22;10808;48.010;11.326;2023-06-10T02:01:09;17.10;97.40
21298;DHT22;10808;48.010;11.326;2023-06-10T02:03:36;17.10;97.50
21298;DHT22;10808;48.010;11.326;2023-06-10T02:06:02;17.00;98.00
21298;DHT22;10808;48.010;11.326;2023-06-10T02:08:28;17.10;97.90
21298;DHT22;10808;48.010;11.326;2023-06-10T02:10:54;17.10;97.70
21298;DHT22;10808;48.010;11.326;2023-06-10T02:13:20;17.10;97.40
21298;DHT22;10808;48.010;11.326;2023-06-10T02:15:46;17.00;97.70
21298;DHT22;10808;48.010;11.326;2023-06-10T02:18:12;17.00;97.80
21298;DHT22;10808;48.010;11.326;2023-06-10T02:20:39;16.90;98.00
21298;DHT22;10808;48.010;11.326;2023-06-10T02:23:05;16.90;98.30
21298;DHT22;10808;48.010;11.326;2023-06-10T02:25:31;16.80;98.50
21298;DHT22;10808;48.010;11.326;2023-06-10T02:27:57;16.80;98.50
21298;DHT22;10808;48.010;11.326;2023-06-10T02:30:23;16.80;98.60
21298;DHT22;10808;48.010;11.326;2023-06-10T02:32:49;16.80;98.70
21298;DHT22;10808;48.010;11.326;2023-06-10T02:35:17;16.80;99.10
21298;DHT22;10808;48.010;11.326;2023-06-10T02:37:43;16.70;99.10
21298;DHT22;10808;48.010;11.326;2023-06-10T02:40:11;16.70;99.10
21298;DHT22;10808;48.010;11.326;2023-06-10T02:42:37;16.70;99.20
21298;DHT22;10808;48.010;11.326;2023-06-10T02:45:03;16.70;99.00
21298;DHT22;10808;48.010;11.326;2023-06-10T02:47:30;16.70;98.90
21298;DHT22;10808;48.010;11.326;2023-06-10T02:49:56;16.70;98.80
21298;DHT22;10808;48.010;11.326;2023-06-10T02:52:23;16.60;99.30
21298;DHT22;10808;48.010;11.326;2023-06-10T02:54:49;16.60;99.20
21298;DHT22;10808;48.010;11.326;2023-06-10T02:57:15;16.70;99.40
21298;DHT22;10808;48.010;11.326;2023-06-10T02:59:41;16.60;98.90
21298;DHT22;10808;48.010;11.326;2023-06-10T03:02:07;16.60;99.10
21298;DHT22;10808;48.010;11.326;2023-06-10T03:04:33;16.50;99.30
21298;DHT22;10808;48.010;11.326;2023-06-10T03:06:59;16.50;99.40
21298;DHT22;10808;48.010;11.326;2023-06-10T03:09:29;16.50;99.50
21298;DHT22;10808;48.010;11.326;2023-06-10T03:11:55;16.50;99.40
21298;DHT22;10808;48.010;11.326;2023-06-10T03:14:21;16.40;99.50
21298;DHT22;10808;48.010;11.326;2023-06-10T03:16:47;16.40;99.40
21298;DHT22;10808;48.010;11.326;2023-06-10T03:19:14;16.40;99.40
21298;DHT22;10808;48.010;11.326;2023-06-10T03:21:44;16.40;99.70
21298;DHT22;10808;48.010;11.326;2023-06-10T03:24:10;16.30;99.90
21298;DHT22;10808;48.010;11.326;2023-06-10T03:26:36;16.20;99.90
21298;DHT22;10808;48.010;11.326;2023-06-10T03:29:02;16.20;99.90
21298;DHT22;10808;48.010;11.326;2023-06-10T03:31:28;16.20;99.80
21298;DHT22;10808;48.010;11.326;2023-06-10T03:33:55;16.20;99.90
21298;DHT22;10808;48.010;11.326;2023-06-10T03:36:21;16.10;99.90
21298;DHT22;10808;48.010;11.326;2023-06-10T03:38:47;16.10;99.90
21298;DHT22;10808;48.010;11.326;2023-06-10T03:41:13;16.10;99.90
21298;DHT22;10808;48.010;11.326;2023-06-10T03:43:40;16.10;99.90
21298;DHT22;10808;48.010;11.326;2023-06-10T03:46:06;16.10;99.90
21298;DHT22;10808;48.010;11.326;2023-06-10T03:48:32;16.00;99.90
21298;DHT22;10808;48.010;11.326;2023-06-10T03:50:58;15.90;99.90
21298;DHT22;10808;48.010;11.326;2023-06-10T03:53:25;16.00;99.90
21298;DHT22;10808;48.010;11.326;2023-06-10T03:55:51;16.00;99.90
21298;DHT22;10808;48.010;11.326;2023-06-10T03:58:17;16.00;99.90
21298;DHT22;10808;48.010;11.326;2023-06-10T04:00:43;16.00;99.90
21298;DHT22;10808;48.010;11.326;2023-06-10T04:03:11;16.00;99.90
21298;DHT22;10808;48.010;11.326;2023-06-10T04:05:40;16.00;99.90
21298;DHT22;10808;48.010;11.326;2023-06-10T04:08:08;16.00;99.90
21298;DHT22;10808;48.010;11.326;2023-06-10T04:10:34;15.90;99.90
21298;DHT22;10808;48.010;11.326;2023-06-10T04:13:00;16.00;99.90
21298;DHT22;10808;48.010;11.326;2023-06-10T04:15:26;16.00;99.90
21298;DHT22;10808;48.010;11.326;2023-06-10T04:17:52;15.90;99.90
21298;DHT22;10808;48.010;11.326;2023-06-10T04:20:18;16.00;99.90
21298;DHT22;10808;48.010;11.326;2023-06-10T04:22:44;16.10;99.90
21298;DHT22;10808;48.010;11.326;2023-06-10T04:25:10;16.00;99.90
21298;DHT22;10808;48.010;11.326;2023-06-10T04:27:36;16.00;99.90
21298;DHT22;10808;48.010;11.326;2023-06-10T04:30:03;16.00;99.90
21298;DHT22;10808;48.010;11.326;2023-06-10T04:32:30;16.00;99.90
21298;DHT22;10808;48.010;11.326;2023-06-10T04:34:56;16.10;99.90
21298;DHT22;10808;48.010;11.326;2023-06-10T04:37:22;16.00;99.90
21298;DHT22;10808;48.010;11.326;2023-06-10T04:39:48;16.10;99.90
21298;DHT22;10808;48.010;11.326;2023-06-10T04:42:14;16.10;99.90
21298;DHT22;10808;48.010;11.326;2023-06-10T04:44:40;16.10;99.90
21298;DHT22;10808;48.010;11.326;2023-06-10T04:47:07;16.20;99.90
21298;DHT22;10808;48.010;11.326;2023-06-10T04:49:33;16.30;99.90
21298;DHT22;10808;48.010;11.326;2023-06-10T04:51:59;16.30;99.90
21298;DHT22;10808;48.010;11.326;2023-06-10T04:54:25;16.40;99.90
21298;DHT22;10808;48.010;11.326;2023-06-10T04:56:52;16.50;99.90
21298;DHT22;10808;48.010;11.326;2023-06-10T04:59:18;16.50;99.90
21298;DHT22;10808;48.010;11.326;2023-06-10T05:01:44;16.60;99.90
21298;DHT22;10808;48.010;11.326;2023-06-10T05:04:10;16.60;99.90
21298;DHT22;10808;48.010;11.326;2023-06-10T05:06:36;16.70;99.90
21298;DHT22;10808;48.010;11.326;2023-06-10T05:09:02;16.80;99.90
21298;DHT22;10808;48.010;11.326;2023-06-10T05:11:28;16.90;99.90
21298;DHT22;10808;48.010;11.326;2023-06-10T05:13:54;17.00;99.90
21298;DHT22;10808;48.010;11.326;2023-06-10T05:16:20;17.10;99.90
21298;DHT22;10808;48.010;11.326;2023-06-10T05:18:47;17.10;99.90
21298;DHT22;10808;48.010;11.326;2023-06-10T05:21:13;17.30;99.90
21298;DHT22;10808;48.010;11.326;2023-06-10T05:23:39;17.40;99.90
21298;DHT22;10808;48.010;11.326;2023-06-10T05:26:05;17.60;99.90
21298;DHT22;10808;48.010;11.326;2023-06-10T05:28:31;17.70;99.90
21298;DHT22;10808;48.010;11.326;2023-06-10T05:30:57;17.80;99.90
21298;DHT22;10808;48.010;11.326;2023-06-10T05:33:23;18.00;99.90
21298;DHT22;10808;48.010;11.326;2023-06-10T05:35:49;18.10;99.90
21298;DHT22;10808;48.010;11.326;2023-06-10T05:38:15;18.30;99.90
21298;DHT22;10808;48.010;11.326;2023-06-10T05:40:41;18.40;99.90
21298;DHT22;10808;48.010;11.326;2023-06-10T05:43:07;18.60;99.90
21298;DHT22;10808;48.010;11.326;2023-06-10T05:45:35;18.80;99.90
21298;DHT22;10808;48.010;11.326;2023-06-10T05:48:01;19.00;99.90
21298;DHT22;10808;48.010;11.326;2023-06-10T05:50:27;19.20;99.90
21298;DHT22;10808;48.010;11.326;2023-06-10T05:52:53;19.40;99.90
21298;DHT22;10808;48.010;11.326;2023-06-10T05:55:20;19.60;99.40
21298;DHT22;10808;48.010;11.326;2023-06-10T05:57:47;19.80;99.00
21298;DHT22;10808;48.010;11.326;2023-06-10T06:00:13;20.00;98.70
21298;DHT22;10808;48.010;11.326;2023-06-10T06:02:39;20.20;98.30
21298;DHT22;10808;48.010;11.326;2023-06-10T06:05:06;20.30;98.00
21298;DHT22;10808;48.010;11.326;2023-06-10T06:07:32;20.50;97.70
21298;DHT22;10808;48.010;11.326;2023-06-10T06:09:58;20.70;97.40
21298;DHT22;10808;48.010;11.326;2023-06-10T06:12:24;21.00;98.00
21298;DHT22;10808;48.010;11.326;2023-06-10T06:14:50;21.30;97.20
21298;DHT22;10808;48.010;11.326;2023-06-10T06:17:17;21.50;96.90
21298;DHT22;10808;48.010;11.326;2023-06-10T06:19:43;21.80;96.60
21298;DHT22;10808;48.010;11.326;2023-06-10T06:22:09;22.10;96.30
21298;DHT22;10808;48.010;11.326;2023-06-10T06:24:35;22.30;95.90
21298;DHT22;10808;48.010;11.326;2023-06-10T06:27:01;22.50;95.60
21298;DHT22;10808;48.010;11.326;2023-06-10T06:29:27;22.70;95.10
21298;DHT22;10808;48.010;11.326;2023-06-10T06:31:55;23.00;94.80
21298;DHT22;10808;48.010;11.326;2023-06-10T06:34:21;23.30;94.10
21298;DHT22;10808;48.010;11.326;2023-06-10T06:36:47;23.50;93.90
21298;DHT22;10808;48.010;11.326;2023-06-10T06:39:13;23.70;93.70
21298;DHT22;10808;48.010;11.326;2023-06-10T06:41:39;23.90;93.50
21298;DHT22;10808;48.010;11.326;2023-06-10T06:44:05;24.20;92.80
21298;DHT22;10808;48.010;11.326;2023-06-10T06:46:31;24.30;92.80
21298;DHT22;10808;48.010;11.326;2023-06-10T06:48:57;24.50;92.50
21298;DHT22;10808;48.010;11.326;2023-06-10T06:51:23;24.80;92.30
21298;DHT22;10808;48.010;11.326;2023-06-10T06:53:49;25.00;91.50
21298;DHT22;10808;48.010;11.326;2023-06-10T06:56:17;25.20;91.10
21298;DHT22;10808;48.010;11.326;2023-06-10T06:58:43;25.30;90.70
21298;DHT22;10808;48.010;11.326;2023-06-10T07:01:09;25.50;90.90
21298;DHT22;10808;48.010;11.326;2023-06-10T07:03:35;25.70;90.00
21298;DHT22;10808;48.010;11.326;2023-06-10T07:06:02;25.90;90.10
21298;DHT22;10808;48.010;11.326;2023-06-10T07:08:28;26.10;89.30
21298;DHT22;10808;48.010;11.326;2023-06-10T07:10:54;26.40;88.90
21298;DHT22;10808;48.010;11.326;2023-06-10T07:13:20;26.60;87.60
21298;DHT22;10808;48.010;11.326;2023-06-10T07:15:46;26.50;87.50
21298;DHT22;10808;48.010;11.326;2023-06-10T07:18:14;26.70;87.20
21298;DHT22;10808;48.010;11.326;2023-06-10T07:20:40;26.90;87.80
21298;DHT22;10808;48.010;11.326;2023-06-10T07:23:07;27.00;85.80
21298;DHT22;10808;48.010;11.326;2023-06-10T07:25:33;27.10;85.90
21298;DHT22;10808;48.010;11.326;2023-06-10T07:27:59;27.30;85.60
21298;DHT22;10808;48.010;11.326;2023-06-10T07:30:25;27.70;84.90
21298;DHT22;10808;48.010;11.326;2023-06-10T07:32:51;27.90;83.40
21298;DHT22;10808;48.010;11.326;2023-06-10T07:35:17;28.20;83.20
21298;DHT22;10808;48.010;11.326;2023-06-10T07:37:43;28.30;80.70
21298;DHT22;10808;48.010;11.326;2023-06-10T07:40:10;28.40;80.60
21298;DHT22;10808;48.010;11.326;2023-06-10T07:42:36;28.50;80.50
21298;DHT22;10808;48.010;11.326;2023-06-10T07:45:03;28.50;80.10
21298;DHT22;10808;48.010;11.326;2023-06-10T07:47:30;28.70;80.20
21298;DHT22;10808;48.010;11.326;2023-06-10T07:49:56;28.80;78.80
21298;DHT22;10808;48.010;11.326;2023-06-10T07:52:22;29.10;79.10
21298;DHT22;10808;48.010;11.326;2023-06-10T07:54:48;29.40;78.40
21298;DHT22;10808;48.010;11.326;2023-06-10T07:57:17;29.60;76.10
21298;DHT22;10808;48.010;11.326;2023-06-10T07:59:43;29.60;76.60
21298;DHT22;10808;48.010;11.326;2023-06-10T08:02:10;29.70;76.60
21298;DHT22;10808;48.010;11.326;2023-06-10T08:04:36;29.70;76.30
21298;DHT22;10808;48.010;11.326;2023-06-10T08:07:02;30.00;75.20
21298;DHT22;10808;48.010;11.326;2023-06-10T08:09:29;30.10;74.20
21298;DHT22;10808;48.010;11.326;2023-06-10T08:11:55;30.50;73.20
21298;DHT22;10808;48.010;11.326;2023-06-10T08:14:21;30.80;72.10
21298;DHT22;10808;48.010;11.326;2023-06-10T08:16:52;31.20;72.10
21298;DHT22;10808;48.010;11.326;2023-06-10T08:19:18;31.40;71.60
21298;DHT22;10808;48.010;11.326;2023-06-10T08:21:44;31.70;68.90
21298;DHT22;10808;48.010;11.326;2023-06-10T08:24:10;31.80;70.10
21298;DHT22;10808;48.010;11.326;2023-06-10T08:26:36;32.10;70.60
21298;DHT22;10808;48.010;11.326;2023-06-10T08:29:02;32.40;68.50
21298;DHT22;10808;48.010;11.326;2023-06-10T08:31:29;32.70;67.80
21298;DHT22;10808;48.010;11.326;2023-06-10T08:33:55;33.10;67.90
21298;DHT22;10808;48.010;11.326;2023-06-10T08:36:21;33.10;65.40
21298;DHT22;10808;48.010;11.326;2023-06-10T08:38:49;33.30;67.60
21298;DHT22;10808;48.010;11.326;2023-06-10T08:41:17;33.60;64.80
21298;DHT22;10808;48.010;11.326;2023-06-10T08:43:54;33.70;64.30
21298;DHT22;10808;48.010;11.326;2023-06-10T08:46:21;33.90;62.70
21298;DHT22;10808;48.010;11.326;2023-06-10T08:48:48;33.70;62.40
21298;DHT22;10808;48.010;11.326;2023-06-10T08:51:17;33.70;63.80
21298;DHT22;10808;48.010;11.326;2023-06-10T08:53:52;34.00;62.10
21298;DHT22;10808;48.010;11.326;2023-06-10T08:56:20;33.90;62.20
21298;DHT22;10808;48.010;11.326;2023-06-10T08:58:52;33.90;62.70
21298;DHT22;10808;48.010;11.326;2023-06-10T09:01:19;34.10;61.70
21298;DHT22;10808;48.010;11.326;2023-06-10T09:03:45;34.10;60.30
21298;DHT22;10808;48.010;11.326;2023-06-10T09:06:11;34.00;63.60
21298;DHT22;10808;48.010;11.326;2023-06-10T09:08:39;34.30;62.30
21298;DHT22;10808;48.010;11.326;2023-06-10T09:11:05;34.50;61.40
21298;DHT22;10808;48.010;11.326;2023-06-10T09:13:31;34.60;63.00
21298;DHT22;10808;48.010;11.326;2023-06-10T09:15:57;34.90;60.70
21298;DHT22;10808;48.010;11.326;2023-06-10T09:18:28;34.90;60.80
21298;DHT22;10808;48.010;11.326;2023-06-10T09:20:54;35.30;61.50
21298;DHT22;10808;48.010;11.326;2023-06-10T09:23:21;35.40;60.10
21298;DHT22;10808;48.010;11.326;2023-06-10T09:25:57;35.60;59.30
21298;DHT22;10808;48.010;11.326;2023-06-10T09:28:26;35.90;58.80
21298;DHT22;10808;48.010;11.326;2023-06-10T09:31:03;35.90;56.80
21298;DHT22;10808;48.010;11.326;2023-06-10T09:33:29;35.70;57.40
21298;DHT22;10808;48.010;11.326;2023-06-10T09:35:55;35.50;56.40
21298;DHT22;10808;48.010;11.326;2023-06-10T09:38:30;35.20;58.60
21298;DHT22;10808;48.010;11.326;2023-06-10T09:40:57;35.50;59.20
21298;DHT22;10808;48.010;11.326;2023-06-10T09:43:41;35.90;59.20
21298;DHT22;10808;48.010;11.326;2023-06-10T09:46:18;36.30;58.90
21298;DHT22;10808;48.010;11.326;2023-06-10T09:48:46;36.50;56.50
21298;DHT22;10808;48.010;11.326;2023-06-10T09:51:13;36.30;57.80
21298;DHT22;10808;48.010;11.326;2023-06-10T09:53:40;36.20;56.90
21298;DHT22;10808;48.010;11.326;2023-06-10T09:56:06;36.10;55.70
21298;DHT22;10808;48.010;11.326;2023-06-10T09:58:36;35.50;56.30
21298;DHT22;10808;48.010;11.326;2023-06-10T10:01:08;35.20;58.10
21298;DHT22;10808;48.010;11.326;2023-06-10T10:03:47;35.50;57.60
21298;DHT22;10808;48.010;11.326;2023-06-10T10:06:15;35.90;57.60
21298;DHT22;10808;48.010;11.326;2023-06-10T10:08:41;36.10;57.50
21298;DHT22;10808;48.010;11.326;2023-06-10T10:11:07;36.30;57.10
21298;DHT22;10808;48.010;11.326;2023-06-10T10:13:34;36.80;56.90
21298;DHT22;10808;48.010;11.326;2023-06-10T10:16:06;37.00;57.00
21298;DHT22;10808;48.010;11.326;2023-06-10T10:18:39;37.30;55.90
21298;DHT22;10808;48.010;11.326;2023-06-10T10:21:11;37.20;56.40
21298;DHT22;10808;48.010;11.326;2023-06-10T10:26:14;37.40;55.30
21298;DHT22;10808;48.010;11.326;2023-06-10T10:29:19;37.30;55.50
21298;DHT22;10808;48.010;11.326;2023-06-10T10:31:39;37.20;55.20
21298;DHT22;10808;48.010;11.326;2023-06-10T10:34:08;37.20;56.10
21298;DHT22;10808;48.010;11.326;2023-06-10T10:36:35;37.10;55.50
21298;DHT22;10808;48.010;11.326;2023-06-10T10:39:04;37.00;56.10
21298;DHT22;10808;48.010;11.326;2023-06-10T10:41:31;36.80;55.40
21298;DHT22;10808;48.010;11.326;2023-06-10T10:43:59;36.50;55.40
21298;DHT22;10808;48.010;11.326;2023-06-10T10:46:25;36.30;55.00
21298;DHT22;10808;48.010;11.326;2023-06-10T10:48:53;36.30;56.40
21298;DHT22;10808;48.010;11.326;2023-06-10T10:51:20;36.10;56.60
21298;DHT22;10808;48.010;11.326;2023-06-10T10:54:18;35.90;57.00
21298;DHT22;10808;48.010;11.326;2023-06-10T10:57:13;35.60;55.50
21298;DHT22;10808;48.010;11.326;2023-06-10T11:05:05;35.30;57.30
21298;DHT22;10808;48.010;11.326;2023-06-10T11:07:32;35.60;56.90
21298;DHT22;10808;48.010;11.326;2023-06-10T11:12:51;35.50;57.00
21298;DHT22;10808;48.010;11.326;2023-06-10T11:15:24;35.90;56.80
21298;DHT22;10808;48.010;11.326;2023-06-10T11:20:50;36.20;56.80
21298;DHT22;10808;48.010;11.326;2023-06-10T11:26:14;37.00;54.80
21298;DHT22;10808;48.010;11.326;2023-06-10T11:31:21;38.00;53.70
21298;DHT22;10808;48.010;11.326;2023-06-10T11:33:48;38.10;52.20
21298;DHT22;10808;48.010;11.326;2023-06-10T11:36:17;38.30;52.90
21298;DHT22;10808;48.010;11.326;2023-06-10T11:38:43;38.60;52.00
21298;DHT22;10808;48.010;11.326;2023-06-10T11:41:11;38.70;50.20
21298;DHT22;10808;48.010;11.326;2023-06-10T11:43:44;38.70;50.30
21298;DHT22;10808;48.010;11.326;2023-06-10T11:46:14;38.70;51.40
21298;DHT22;10808;48.010;11.326;2023-06-10T11:48:51;38.90;52.10
21298;DHT22;10808;48.010;11.326;2023-06-10T11:51:18;39.10;51.40
21298;DHT22;10808;48.010;11.326;2023-06-10T11:53:50;39.10;51.70
21298;DHT22;10808;48.010;11.326;2023-06-10T11:56:24;39.20;51.60
21298;DHT22;10808;48.010;11.326;2023-06-10T11:58:59;39.30;51.80
21298;DHT22;10808;48.010;11.326;2023-06-10T12:01:30;39.30;50.50
21298;DHT22;10808;48.010;11.326;2023-06-10T12:03:59;39.10;52.50
21298;DHT22;10808;48.010;11.326;2023-06-10T12:06:25;39.00;51.90
21298;DHT22;10808;48.010;11.326;2023-06-10T12:08:51;39.20;51.20
21298;DHT22;10808;48.010;11.326;2023-06-10T12:11:17;39.30;50.80
21298;DHT22;10808;48.010;11.326;2023-06-10T12:13:48;39.10;51.20
21298;DHT22;10808;48.010;11.326;2023-06-10T12:16:15;39.30;51.40
21298;DHT22;10808;48.010;11.326;2023-06-10T12:18:43;39.50;50.70
21298;DHT22;10808;48.010;11.326;2023-06-10T12:21:19;39.50;50.60
21298;DHT22;10808;48.010;11.326;2023-06-10T12:24:19;39.60;50.90
21298;DHT22;10808;48.010;11.326;2023-06-10T12:26:45;39.40;50.10
21298;DHT22;10808;48.010;11.326;2023-06-10T12:29:18;39.20;51.30
21298;DHT22;10808;48.010;11.326;2023-06-10T12:34:31;39.10;51.10
21298;DHT22;10808;48.010;11.326;2023-06-10T12:36:57;38.80;50.40
21298;DHT22;10808;48.010;11.326;2023-06-10T12:39:23;38.80;51.10
21298;DHT22;10808;48.010;11.326;2023-06-10T12:41:51;39.00;52.00
21298;DHT22;10808;48.010;11.326;2023-06-10T12:44:17;39.00;51.80
21298;DHT22;10808;48.010;11.326;2023-06-10T12:46:43;39.00;50.80
21298;DHT22;10808;48.010;11.326;2023-06-10T12:49:19;39.10;51.50
21298;DHT22;10808;48.010;11.326;2023-06-10T12:51:46;39.40;50.60
21298;DHT22;10808;48.010;11.326;2023-06-10T12:54:13;39.40;50.40
21298;DHT22;10808;48.010;11.326;2023-06-10T12:56:39;39.40;50.50
21298;DHT22;10808;48.010;11.326;2023-06-10T12:59:05;39.40;50.70
21298;DHT22;10808;48.010;11.326;2023-06-10T13:01:31;39.40;50.50
21298;DHT22;10808;48.010;11.326;2023-06-10T13:03:58;39.40;49.10
21298;DHT22;10808;48.010;11.326;2023-06-10T13:06:24;39.20;50.80
21298;DHT22;10808;48.010;11.326;2023-06-10T13:08:51;39.20;50.40
21298;DHT22;10808;48.010;11.326;2023-06-10T13:11:17;39.10;49.10
21298;DHT22;10808;48.010;11.326;2023-06-10T13:13:43;38.80;50.10
21298;DHT22;10808;48.010;11.326;2023-06-10T13:16:09;38.70;49.90
21298;DHT22;10808;48.010;11.326;2023-06-10T13:18:35;38.60;49.60
21298;DHT22;10808;48.010;11.326;2023-06-10T13:21:04;38.50;50.30
21298;DHT22;10808;48.010;11.326;2023-06-10T13:23:30;38.40;50.00
21298;DHT22;10808;48.010;11.326;2023-06-10T13:25:57;38.40;50.20
21298;DHT22;10808;48.010;11.326;2023-06-10T13:28:23;38.60;50.30
21298;DHT22;10808;48.010;11.326;2023-06-10T13:30:49;38.60;50.10
21298;DHT22;10808;48.010;11.326;2023-06-10T13:33:16;38.40;49.80
21298;DHT22;10808;48.010;11.326;2023-06-10T13:35:42;38.10;50.60
21298;DHT22;10808;48.010;11.326;2023-06-10T13:38:08;37.80;50.10
21298;DHT22;10808;48.010;11.326;2023-06-10T13:40:34;37.20;51.70
21298;DHT22;10808;48.010;11.326;2023-06-10T13:43:00;37.00;51.40
21298;DHT22;10808;48.010;11.326;2023-06-10T13:45:26;37.00;51.50
21298;DHT22;10808;48.010;11.326;2023-06-10T13:47:53;37.00;51.80
21298;DHT22;10808;48.010;11.326;2023-06-10T13:50:20;36.80;51.60
21298;DHT22;10808;48.010;11.326;2023-06-10T13:52:46;36.60;52.20
21298;DHT22;10808;48.010;11.326;2023-06-10T13:55:12;36.30;52.00
21298;DHT22;10808;48.010;11.326;2023-06-10T13:57:38;36.00;51.80
21298;DHT22;10808;48.010;11.326;2023-06-10T14:00:04;35.40;52.20
21298;DHT22;10808;48.010;11.326;2023-06-10T14:02:31;35.00;53.00
21298;DHT22;10808;48.010;11.326;2023-06-10T14:04:57;34.90;53.60
21298;DHT22;10808;48.010;11.326;2023-06-10T14:07:23;34.50;54.00
21298;DHT22;10808;48.010;11.326;2023-06-10T14:09:51;34.10;55.50
21298;DHT22;10808;48.010;11.326;2023-06-10T14:12:18;33.60;56.40
21298;DHT22;10808;48.010;11.326;2023-06-10T14:14:44;33.40;56.80
21298;DHT22;10808;48.010;11.326;2023-06-10T14:17:10;33.00;58.10
21298;DHT22;10808;48.010;11.326;2023-06-10T14:19:36;32.60;58.20
21298;DHT22;10808;48.010;11.326;2023-06-10T14:22:02;32.40;58.80
21298;DHT22;10808;48.010;11.326;2023-06-10T14:24:28;32.00;59.10
21298;DHT22;10808;48.010;11.326;2023-06-10T14:26:54;31.80;58.90
21298;DHT22;10808;48.010;11.326;2023-06-10T14:29:20;31.90;59.60
21298;DHT22;10808;48.010;11.326;2023-06-10T14:31:46;31.80;58.90
21298;DHT22;10808;48.010;11.326;2023-06-10T14:34:12;31.80;59.40
21298;DHT22;10808;48.010;11.326;2023-06-10T14:36:39;32.00;59.80
21298;DHT22;10808;48.010;11.326;2023-06-10T14:39:05;32.20;60.40
21298;DHT22;10808;48.010;11.326;2023-06-10T14:41:31;32.40;60.00
21298;DHT22;10808;48.010;11.326;2023-06-10T14:43:57;32.40;59.80
21298;DHT22;10808;48.010;11.326;2023-06-10T14:46:23;32.40;59.90
21298;DHT22;10808;48.010;11.326;2023-06-10T14:48:49;32.40;60.20
21298;DHT22;10808;48.010;11.326;2023-06-10T14:51:18;32.50;60.60
21298;DHT22;10808;48.010;11.326;2023-06-10T14:53:44;32.50;59.90
21298;DHT22;10808;48.010;11.326;2023-06-10T14:56:11;32.60;59.90
21298;DHT22;10808;48.010;11.326;2023-06-10T14:58:37;32.50;59.40
21298;DHT22;10808;48.010;11.326;2023-06-10T15:01:03;32.50;59.20
21298;DHT22;10808;48.010;11.326;2023-06-10T15:03:29;32.40;59.00
21298;DHT22;10808;48.010;11.326;2023-06-10T15:05:55;32.50;59.40
21298;DHT22;10808;48.010;11.326;2023-06-10T15:08:21;32.60;59.40
21298;DHT22;10808;48.010;11.326;2023-06-10T15:10:47;32.50;58.60
21298;DHT22;10808;48.010;11.326;2023-06-10T15:13:16;32.40;58.90
21298;DHT22;10808;48.010;11.326;2023-06-10T15:15:42;32.20;59.20
21298;DHT22;10808;48.010;11.326;2023-06-10T15:18:08;32.10;58.80
21298;DHT22;10808;48.010;11.326;2023-06-10T15:20:35;32.00;59.10
21298;DHT22;10808;48.010;11.326;2023-06-10T15:23:01;31.80;59.00
21298;DHT22;10808;48.010;11.326;2023-06-10T15:25:27;31.60;60.10
21298;DHT22;10808;48.010;11.326;2023-06-10T15:27:53;31.50;60.00
21298;DHT22;10808;48.010;11.326;2023-06-10T15:30:19;31.50;60.40
21298;DHT22;10808;48.010;11.326;2023-06-10T15:32:45;31.60;60.10
21298;DHT22;10808;48.010;11.326;2023-06-10T15:35:11;31.70;59.20
21298;DHT22;10808;48.010;11.326;2023-06-10T15:37:37;31.50;59.50
21298;DHT22;10808;48.010;11.326;2023-06-10T15:40:04;31.20;59.80